sensor_id;sensor_type;location;lat;lon;timestamp;pressure;altitude;pressure_sealevel;temperature;humidity
55068;BME280;40965;52.368;9.712;2023-06-22T00:19:47;101176.16;;;20.25;89.00
55068;BME280;40965;52.368;9.712;2023-06-22T00:22:18;101175.34;;;20.23;88.87
55068;BME280;40965;52.368;9.712;2023-06-22T00:24:53;101180.81;;;20.20;88.76
55068;BME280;40965;52.368;9.712;2023-06-22T00:27:21;101189.75;;;20.17;88.66
55068;BME280;40965;52.368;9.712;2023-06-22T00:29:47;101186.31;;;20.15;88.53
55068;BME280;40965;52.368;9.712;2023-06-22T00:32:14;101194.53;;;20.09;88.51
55068;BME280;40965;52.368;9.712;2023-06-22T00:34:41;101198.19;;;20.07;88.60
55068;BME280;40965;52.368;9.712;2023-06-22T00:37:07;101203.66;;;20.02;88.81
55068;BME280;40965;52.368;9.712;2023-06-22T00:39:34;101196.88;;;19.95;88.88
55068;BME280;40965;52.368;9.712;2023-06-22T00:42:00;101197.94;;;19.91;88.63
55068;BME280;40965;52.368;9.712;2023-06-22T00:44:27;101193.63;;;19.87;89.19
55068;BME280;40965;52.368;9.712;2023-06-22T00:46:54;101184.94;;;19.83;88.89
55068;BME280;40965;52.368;9.712;2023-06-22T00:49:20;101178.84;;;19.79;88.72
55068;BME280;40965;52.368;9.712;2023-06-22T00:51:47;101170.97;;;19.76;88.93
55068;BME280;40965;52.368;9.712;2023-06-22T00:54:14;101170.19;;;19.74;88.51
55068;BME280;40965;52.368;9.712;2023-06-22T00:56:41;101163.13;;;19.73;88.32
55068;BME280;40965;52.368;9.712;2023-06-22T00:59:07;101160.56;;;19.72;87.85
55068;BME280;40965;52.368;9.712;2023-06-22T01:01:37;101158.03;;;19.69;87.38
55068;BME280;40965;52.368;9.712;2023-06-22T01:04:06;101149.31;;;19.65;87.53
55068;BME280;40965;52.368;9.712;2023-06-22T01:06:38;101148.41;;;19.64;87.32
55068;BME280;40965;52.368;9.712;2023-06-22T01:09:15;101151.34;;;19.58;87.20
55068;BME280;40965;52.368;9.712;2023-06-22T01:11:45;101148.78;;;19.55;87.05
55068;BME280;40965;52.368;9.712;2023-06-22T01:14:24;101145.44;;;19.50;87.09
55068;BME280;40965;52.368;9.712;2023-06-22T01:16:55;101137.59;;;19.47;87.08
55068;BME280;40965;52.368;9.712;2023-06-22T01:19:51;101137.72;;;19.44;87.51
55068;BME280;40965;52.368;9.712;2023-06-22T01:22:28;101134.38;;;19.39;87.83
55068;BME280;40965;52.368;9.712;2023-06-22T01:25:20;101130.06;;;19.36;88.07
55068;BME280;40965;52.368;9.712;2023-06-22T01:27:55;101116.81;;;19.34;87.90
55068;BME280;40965;52.368;9.712;2023-06-22T01:30:32;101115.91;;;19.36;87.68
55068;BME280;40965;52.368;9.712;2023-06-22T01:33:03;101123.94;;;19.34;87.98
55068;BME280;40965;52.368;9.712;2023-06-22T01:35:31;101128.31;;;19.35;87.60
55068;BME280;40965;52.368;9.712;2023-06-22T01:37:58;101131.75;;;19.37;87.19
55068;BME280;40965;52.368;9.712;2023-06-22T01:40:25;101141.59;;;19.35;87.32
55068;BME280;40965;52.368;9.712;2023-06-22T01:42:53;101139.00;;;19.33;87.60
55068;BME280;40965;52.368;9.712;2023-06-22T01:45:20;101131.03;;;19.33;87.33
55068;BME280;40965;52.368;9.712;2023-06-22T01:47:47;101127.50;;;19.33;87.26
55068;BME280;40965;52.368;9.712;2023-06-22T01:50:14;101130.16;;;19.33;86.88
55068;BME280;40965;52.368;9.712;2023-06-22T01:52:40;101130.16;;;19.33;86.97
55068;BME280;40965;52.368;9.712;2023-06-22T01:55:07;101127.63;;;19.30;87.27
55068;BME280;40965;52.368;9.712;2023-06-22T01:57:34;101124.06;;;19.31;87.12
55068;BME280;40965;52.368;9.712;2023-06-22T02:00:17;101132.13;;;19.28;87.06
55068;BME280;40965;52.368;9.712;2023-06-22T02:02:55;101130.41;;;19.27;86.92
55068;BME280;40965;52.368;9.712;2023-06-22T02:05:37;101127.78;;;19.25;86.61
55068;BME280;40965;52.368;9.712;2023-06-22T02:08:10;101137.72;;;19.20;86.90
55068;BME280;40965;52.368;9.712;2023-06-22T02:10:42;101141.41;;;19.16;86.84
55068;BME280;40965;52.368;9.712;2023-06-22T02:13:10;101144.19;;;19.13;86.96
55068;BME280;40965;52.368;9.712;2023-06-22T02:15:38;101142.50;;;19.10;86.98
55068;BME280;40965;52.368;9.712;2023-06-22T02:18:05;101146.16;;;19.08;87.23
55068;BME280;40965;52.368;9.712;2023-06-22T02:20:31;101143.63;;;19.05;87.24
55068;BME280;40965;52.368;9.712;2023-06-22T02:22:58;101144.53;;;19.04;87.33
55068;BME280;40965;52.368;9.712;2023-06-22T02:25:24;101149.06;;;19.00;87.30
55068;BME280;40965;52.368;9.712;2023-06-22T02:27:51;101142.25;;;18.93;87.98
55068;BME280;40965;52.368;9.712;2023-06-22T02:30:18;101141.44;;;18.91;87.87
55068;BME280;40965;52.368;9.712;2023-06-22T02:32:44;101141.56;;;18.86;88.34
55068;BME280;40965;52.368;9.712;2023-06-22T02:35:11;101136.31;;;18.84;88.54
55068;BME280;40965;52.368;9.712;2023-06-22T02:37:38;101152.31;;;18.83;88.52
55068;BME280;40965;52.368;9.712;2023-06-22T02:40:08;101154.13;;;18.81;88.83
55068;BME280;40965;52.368;9.712;2023-06-22T02:42:39;101163.13;;;18.77;89.01
55068;BME280;40965;52.368;9.712;2023-06-22T02:45:05;101158.84;;;18.73;89.47
55068;BME280;40965;52.368;9.712;2023-06-22T02:47:32;101168.63;;;18.71;89.45
55068;BME280;40965;52.368;9.712;2023-06-22T02:49:59;101173.19;;;18.67;89.75
55068;BME280;40965;52.368;9.712;2023-06-22T02:52:25;101183.81;;;18.67;89.85
55068;BME280;40965;52.368;9.712;2023-06-22T02:54:52;101178.59;;;18.64;90.02
55068;BME280;40965;52.368;9.712;2023-06-22T02:57:18;101185.75;;;18.62;90.32
55068;BME280;40965;52.368;9.712;2023-06-22T02:59:45;101186.72;;;18.59;90.74
55068;BME280;40965;52.368;9.712;2023-06-22T03:02:11;101185.13;;;18.54;91.40
55068;BME280;40965;52.368;9.712;2023-06-22T03:04:38;101186.06;;;18.52;91.36
55068;BME280;40965;52.368;9.712;2023-06-22T03:07:04;101187.78;;;18.54;91.10
55068;BME280;40965;52.368;9.712;2023-06-22T03:09:31;101188.75;;;18.51;91.41
55068;BME280;40965;52.368;9.712;2023-06-22T03:11:57;101194.97;;;18.50;91.97
55068;BME280;40965;52.368;9.712;2023-06-22T03:14:24;101189.72;;;18.48;91.42
55068;BME280;40965;52.368;9.712;2023-06-22T03:16:51;101187.06;;;18.48;91.88
55068;BME280;40965;52.368;9.712;2023-06-22T03:19:18;101187.88;;;18.50;91.96
55068;BME280;40965;52.368;9.712;2023-06-22T03:21:44;101187.94;;;18.49;91.99
55068;BME280;40965;52.368;9.712;2023-06-22T03:24:11;101186.16;;;18.49;92.06
55068;BME280;40965;52.368;9.712;2023-06-22T03:26:37;101186.97;;;18.51;92.02
55068;BME280;40965;52.368;9.712;2023-06-22T03:29:04;101185.22;;;18.50;92.06
55068;BME280;40965;52.368;9.712;2023-06-22T03:31:30;101188.59;;;18.56;91.72
55068;BME280;40965;52.368;9.712;2023-06-22T03:33:57;101192.88;;;18.60;91.92
55068;BME280;40965;52.368;9.712;2023-06-22T03:36:23;101193.59;;;18.65;91.80
55068;BME280;40965;52.368;9.712;2023-06-22T03:38:50;101191.78;;;18.65;92.02
55068;BME280;40965;52.368;9.712;2023-06-22T03:41:17;101175.72;;;18.70;91.53
55068;BME280;40965;52.368;9.712;2023-06-22T03:43:43;101173.84;;;18.74;91.26
55068;BME280;40965;52.368;9.712;2023-06-22T03:46:10;101175.53;;;18.76;91.31
55068;BME280;40965;52.368;9.712;2023-06-22T03:48:37;101180.84;;;18.76;91.46
55068;BME280;40965;52.368;9.712;2023-06-22T03:51:04;101173.72;;;18.77;91.17
55068;BME280;40965;52.368;9.712;2023-06-22T03:53:31;101177.16;;;18.80;91.30
55068;BME280;40965;52.368;9.712;2023-06-22T03:55:57;101171.63;;;18.87;90.85
55068;BME280;40965;52.368;9.712;2023-06-22T03:58:24;101177.44;;;18.98;90.40
55068;BME280;40965;52.368;9.712;2023-06-22T04:00:52;101170.16;;;19.05;90.08
55068;BME280;40965;52.368;9.712;2023-06-22T04:03:19;101168.06;;;19.13;89.38
55068;BME280;40965;52.368;9.712;2023-06-22T04:05:45;101174.72;;;19.25;88.97
55068;BME280;40965;52.368;9.712;2023-06-22T04:08:13;101169.13;;;19.32;88.36
55068;BME280;40965;52.368;9.712;2023-06-22T04:10:40;101180.59;;;19.33;88.23
55068;BME280;40965;52.368;9.712;2023-06-22T04:13:06;101178.75;;;19.35;88.22
55068;BME280;40965;52.368;9.712;2023-06-22T04:15:33;101180.25;;;19.42;87.73
55068;BME280;40965;52.368;9.712;2023-06-22T04:18:00;101187.91;;;19.50;87.35
55068;BME280;40965;52.368;9.712;2023-06-22T04:20:26;101191.34;;;19.54;86.82
55068;BME280;40965;52.368;9.712;2023-06-22T04:22:53;101184.19;;;19.56;86.79
55068;BME280;40965;52.368;9.712;2023-06-22T04:25:20;101178.81;;;19.57;86.27
55068;BME280;40965;52.368;9.712;2023-06-22T04:27:48;101178.81;;;19.57;86.36
55068;BME280;40965;52.368;9.712;2023-06-22T04:30:15;101182.44;;;19.55;86.13
55068;BME280;40965;52.368;9.712;2023-06-22T04:32:42;101178.00;;;19.55;85.97
55068;BME280;40965;52.368;9.712;2023-06-22T04:35:10;101174.34;;;19.58;85.85
55068;BME280;40965;52.368;9.712;2023-06-22T04:37:36;101169.72;;;19.63;85.83
55068;BME280;40965;52.368;9.712;2023-06-22T04:40:04;101174.75;;;19.71;85.57
55068;BME280;40965;52.368;9.712;2023-06-22T04:42:34;101183.25;;;19.80;84.98
55068;BME280;40965;52.368;9.712;2023-06-22T04:45:01;101179.38;;;19.89;84.37
55068;BME280;40965;52.368;9.712;2023-06-22T04:47:28;101180.63;;;20.03;83.83
55068;BME280;40965;52.368;9.712;2023-06-22T04:49:55;101187.25;;;20.14;83.26
55068;BME280;40965;52.368;9.712;2023-06-22T04:52:21;101191.44;;;20.20;82.74
55068;BME280;40965;52.368;9.712;2023-06-22T04:54:50;101183.00;;;20.31;82.34
55068;BME280;40965;52.368;9.712;2023-06-22T04:57:20;101184.81;;;20.30;81.85
55068;BME280;40965;52.368;9.712;2023-06-22T05:00:01;101174.69;;;20.18;82.29
55068;BME280;40965;52.368;9.712;2023-06-22T05:02:38;101182.09;;;20.10;82.74
55068;BME280;40965;52.368;9.712;2023-06-22T05:05:07;101179.56;;;20.07;82.84
55068;BME280;40965;52.368;9.712;2023-06-22T05:07:39;101175.00;;;20.10;82.91
55068;BME280;40965;52.368;9.712;2023-06-22T05:10:10;101173.81;;;20.17;82.44
55068;BME280;40965;52.368;9.712;2023-06-22T05:12:37;101169.84;;;20.28;82.05
55068;BME280;40965;52.368;9.712;2023-06-22T05:15:09;101165.88;;;20.38;81.50
55068;BME280;40965;52.368;9.712;2023-06-22T05:17:36;101164.34;;;20.53;80.88
55068;BME280;40965;52.368;9.712;2023-06-22T05:20:09;101161.03;;;20.69;80.20
55068;BME280;40965;52.368;9.712;2023-06-22T05:22:36;101162.41;;;20.79;79.43
55068;BME280;40965;52.368;9.712;2023-06-22T05:25:02;101163.53;;;20.94;79.13
55068;BME280;40965;52.368;9.712;2023-06-22T05:27:29;101154.34;;;21.01;78.22
55068;BME280;40965;52.368;9.712;2023-06-22T05:29:56;101154.22;;;21.04;78.34
55068;BME280;40965;52.368;9.712;2023-06-22T05:32:22;101161.06;;;21.10;77.99
55068;BME280;40965;52.368;9.712;2023-06-22T05:34:49;101161.56;;;21.18;77.55
55068;BME280;40965;52.368;9.712;2023-06-22T05:37:15;101156.91;;;21.23;77.52
55068;BME280;40965;52.368;9.712;2023-06-22T05:39:42;101159.56;;;21.23;76.89
55068;BME280;40965;52.368;9.712;2023-06-22T05:42:09;101164.69;;;21.28;77.03
55068;BME280;40965;52.368;9.712;2023-06-22T05:44:35;101165.34;;;21.33;76.33
55068;BME280;40965;52.368;9.712;2023-06-22T05:47:02;101161.66;;;21.36;76.22
55068;BME280;40965;52.368;9.712;2023-06-22T05:49:29;101157.69;;;21.44;75.74
55068;BME280;40965;52.368;9.712;2023-06-22T05:51:58;101165.25;;;21.55;75.16
55068;BME280;40965;52.368;9.712;2023-06-22T05:54:30;101163.88;;;21.66;74.56
55068;BME280;40965;52.368;9.712;2023-06-22T05:56:56;101163.72;;;21.69;74.09
55068;BME280;40965;52.368;9.712;2023-06-22T05:59:24;101161.84;;;21.71;73.86
55068;BME280;40965;52.368;9.712;2023-06-22T06:01:50;101149.38;;;21.71;73.57
55068;BME280;40965;52.368;9.712;2023-06-22T06:04:18;101157.56;;;21.67;73.67
55068;BME280;40965;52.368;9.712;2023-06-22T06:06:45;101151.41;;;21.66;73.56
55068;BME280;40965;52.368;9.712;2023-06-22T06:09:13;101157.53;;;21.68;73.04
55068;BME280;40965;52.368;9.712;2023-06-22T06:11:40;101160.31;;;21.65;72.97
55068;BME280;40965;52.368;9.712;2023-06-22T06:14:07;101164.34;;;21.74;73.01
55068;BME280;40965;52.368;9.712;2023-06-22T06:16:34;101158.59;;;21.83;72.06
55068;BME280;40965;52.368;9.712;2023-06-22T06:19:00;101158.06;;;21.94;71.88
55068;BME280;40965;52.368;9.712;2023-06-22T06:21:27;101159.84;;;22.12;70.98
55068;BME280;40965;52.368;9.712;2023-06-22T06:23:53;101150.28;;;22.26;69.92
55068;BME280;40965;52.368;9.712;2023-06-22T06:26:20;101151.63;;;22.35;68.11
55068;BME280;40965;52.368;9.712;2023-06-22T06:28:55;101150.41;;;22.42;68.23
55068;BME280;40965;52.368;9.712;2023-06-22T06:31:22;101140.34;;;22.47;68.03
55068;BME280;40965;52.368;9.712;2023-06-22T06:33:49;101133.06;;;22.51;67.35
55068;BME280;40965;52.368;9.712;2023-06-22T06:36:16;101128.34;;;22.56;66.87
55068;BME280;40965;52.368;9.712;2023-06-22T06:38:43;101137.22;;;22.56;66.13
55068;BME280;40965;52.368;9.712;2023-06-22T06:41:15;101136.09;;;22.60;65.62
55068;BME280;40965;52.368;9.712;2023-06-22T06:43:42;101136.81;;;22.64;65.69
55068;BME280;40965;52.368;9.712;2023-06-22T06:46:10;101122.34;;;22.68;65.49
55068;BME280;40965;52.368;9.712;2023-06-22T06:48:39;101121.09;;;22.75;65.26
55068;BME280;40965;52.368;9.712;2023-06-22T06:51:06;101124.31;;;22.82;64.71
55068;BME280;40965;52.368;9.712;2023-06-22T06:53:35;101123.91;;;22.90;64.39
55068;BME280;40965;52.368;9.712;2023-06-22T06:56:02;101123.09;;;23.05;64.24
55068;BME280;40965;52.368;9.712;2023-06-22T06:58:30;101131.16;;;23.21;63.95
55068;BME280;40965;52.368;9.712;2023-06-22T07:00:57;101128.91;;;23.29;62.63
55068;BME280;40965;52.368;9.712;2023-06-22T07:03:24;101125.91;;;23.36;62.57
55068;BME280;40965;52.368;9.712;2023-06-22T07:05:50;101132.03;;;23.54;62.18
55068;BME280;40965;52.368;9.712;2023-06-22T07:08:17;101131.19;;;23.69;61.36
55068;BME280;40965;52.368;9.712;2023-06-22T07:10:44;101135.22;;;23.76;61.13
55068;BME280;40965;52.368;9.712;2023-06-22T07:13:10;101132.03;;;23.86;60.88
55068;BME280;40965;52.368;9.712;2023-06-22T07:15:37;101136.28;;;23.90;61.05
55068;BME280;40965;52.368;9.712;2023-06-22T07:18:04;101138.00;;;24.07;59.37
55068;BME280;40965;52.368;9.712;2023-06-22T07:20:30;101129.53;;;24.15;59.77
55068;BME280;40965;52.368;9.712;2023-06-22T07:22:57;101139.00;;;24.20;59.45
55068;BME280;40965;52.368;9.712;2023-06-22T07:25:24;101141.06;;;24.45;58.86
55068;BME280;40965;52.368;9.712;2023-06-22T07:27:59;101136.19;;;24.83;57.06
55068;BME280;40965;52.368;9.712;2023-06-22T07:30:27;101132.75;;;24.95;56.15
55068;BME280;40965;52.368;9.712;2023-06-22T07:32:55;101129.59;;;25.03;55.98
55068;BME280;40965;52.368;9.712;2023-06-22T07:35:22;101119.84;;;25.45;55.55
55068;BME280;40965;52.368;9.712;2023-06-22T07:37:49;101112.66;;;26.00;53.92
55068;BME280;40965;52.368;9.712;2023-06-22T07:40:16;101113.25;;;26.58;51.77
55068;BME280;40965;52.368;9.712;2023-06-22T07:42:42;101109.41;;;27.01;51.29
55068;BME280;40965;52.368;9.712;2023-06-22T07:45:09;101114.50;;;27.43;48.75
55068;BME280;40965;52.368;9.712;2023-06-22T07:47:36;101117.38;;;27.77;48.47
55068;BME280;40965;52.368;9.712;2023-06-22T07:50:04;101124.25;;;28.05;46.69
55068;BME280;40965;52.368;9.712;2023-06-22T07:52:32;101129.69;;;28.17;46.12
55068;BME280;40965;52.368;9.712;2023-06-22T07:54:58;101112.31;;;27.72;47.81
55068;BME280;40965;52.368;9.712;2023-06-22T07:57:25;101126.00;;;27.19;48.65
55068;BME280;40965;52.368;9.712;2023-06-22T07:59:58;101117.66;;;26.60;50.48
55068;BME280;40965;52.368;9.712;2023-06-22T08:02:26;101115.63;;;26.23;50.82
55068;BME280;40965;52.368;9.712;2023-06-22T08:04:53;101120.22;;;25.81;52.16
55068;BME280;40965;52.368;9.712;2023-06-22T08:07:19;101112.44;;;25.49;53.28
55068;BME280;40965;52.368;9.712;2023-06-22T08:09:47;101115.22;;;25.47;53.40
55068;BME280;40965;52.368;9.712;2023-06-22T08:12:15;101116.84;;;25.50;53.64
55068;BME280;40965;52.368;9.712;2023-06-22T08:14:43;101122.53;;;25.45;53.93
55068;BME280;40965;52.368;9.712;2023-06-22T08:17:09;101128.41;;;25.65;53.46
55068;BME280;40965;52.368;9.712;2023-06-22T08:19:37;101131.34;;;25.74;52.93
55068;BME280;40965;52.368;9.712;2023-06-22T08:22:04;101131.72;;;25.83;52.76
55068;BME280;40965;52.368;9.712;2023-06-22T08:24:31;101137.31;;;25.92;52.83
55068;BME280;40965;52.368;9.712;2023-06-22T08:26:58;101126.84;;;26.02;52.42
55068;BME280;40965;52.368;9.712;2023-06-22T08:29:25;101133.78;;;25.92;52.76
55068;BME280;40965;52.368;9.712;2023-06-22T08:31:51;101124.84;;;25.64;53.48
55068;BME280;40965;52.368;9.712;2023-06-22T08:34:18;101133.66;;;25.66;54.00
55068;BME280;40965;52.368;9.712;2023-06-22T08:36:48;101127.47;;;25.66;54.01
55068;BME280;40965;52.368;9.712;2023-06-22T08:39:19;101138.19;;;25.66;54.33
55068;BME280;40965;52.368;9.712;2023-06-22T08:41:47;101140.91;;;25.79;54.09
55068;BME280;40965;52.368;9.712;2023-06-22T08:44:15;101135.03;;;25.86;53.86
55068;BME280;40965;52.368;9.712;2023-06-22T08:46:45;101140.31;;;25.88;54.19
55068;BME280;40965;52.368;9.712;2023-06-22T08:49:12;101130.16;;;25.93;54.03
55068;BME280;40965;52.368;9.712;2023-06-22T08:51:41;101121.13;;;25.94;54.00
55068;BME280;40965;52.368;9.712;2023-06-22T08:54:09;101115.13;;;25.90;54.31
55068;BME280;40965;52.368;9.712;2023-06-22T08:56:36;101115.19;;;26.16;53.66
55068;BME280;40965;52.368;9.712;2023-06-22T08:59:02;101116.00;;;26.31;52.86
55068;BME280;40965;52.368;9.712;2023-06-22T09:01:29;101123.94;;;26.33;52.79
55068;BME280;40965;52.368;9.712;2023-06-22T09:03:56;101121.38;;;26.44;52.51
55068;BME280;40965;52.368;9.712;2023-06-22T09:06:25;101115.78;;;26.47;52.82
55068;BME280;40965;52.368;9.712;2023-06-22T09:08:52;101116.25;;;26.67;52.47
55068;BME280;40965;52.368;9.712;2023-06-22T09:11:18;101116.69;;;26.86;51.64
55068;BME280;40965;52.368;9.712;2023-06-22T09:13:45;101103.69;;;26.80;51.63
55068;BME280;40965;52.368;9.712;2023-06-22T09:16:12;101092.72;;;26.70;51.67
55068;BME280;40965;52.368;9.712;2023-06-22T09:18:39;101084.22;;;26.89;51.27
55068;BME280;40965;52.368;9.712;2023-06-22T09:21:06;101091.84;;;27.08;50.75
55068;BME280;40965;52.368;9.712;2023-06-22T09:23:32;101077.66;;;27.56;49.46
55068;BME280;40965;52.368;9.712;2023-06-22T09:25:59;101081.25;;;27.68;49.22
55068;BME280;40965;52.368;9.712;2023-06-22T09:28:25;101075.44;;;27.75;48.75
55068;BME280;40965;52.368;9.712;2023-06-22T09:30:52;101085.09;;;27.53;49.47
55068;BME280;40965;52.368;9.712;2023-06-22T09:33:24;101077.31;;;27.24;50.07
55068;BME280;40965;52.368;9.712;2023-06-22T09:35:53;101073.69;;;27.12;50.82
55068;BME280;40965;52.368;9.712;2023-06-22T09:38:21;101069.50;;;27.08;50.72
55068;BME280;40965;52.368;9.712;2023-06-22T09:40:48;101062.63;;;27.04;50.83
55068;BME280;40965;52.368;9.712;2023-06-22T09:43:14;101068.00;;;27.04;50.69
55068;BME280;40965;52.368;9.712;2023-06-22T09:45:41;101075.56;;;26.86;51.15
55068;BME280;40965;52.368;9.712;2023-06-22T09:48:08;101080.47;;;26.92;50.93
55068;BME280;40965;52.368;9.712;2023-06-22T09:50:36;101082.59;;;27.00;51.15
55068;BME280;40965;52.368;9.712;2023-06-22T09:53:02;101090.44;;;27.16;50.64
55068;BME280;40965;52.368;9.712;2023-06-22T09:55:33;101083.31;;;27.28;50.50
55068;BME280;40965;52.368;9.712;2023-06-22T09:58:00;101077.78;;;27.55;49.93
55068;BME280;40965;52.368;9.712;2023-06-22T10:00:28;101066.72;;;27.71;49.72
55068;BME280;40965;52.368;9.712;2023-06-22T10:02:54;101069.47;;;27.58;49.94
55068;BME280;40965;52.368;9.712;2023-06-22T10:05:22;101065.22;;;27.30;50.79
55068;BME280;40965;52.368;9.712;2023-06-22T10:07:49;101064.94;;;27.21;51.01
55068;BME280;40965;52.368;9.712;2023-06-22T10:10:16;101067.00;;;27.18;51.33
55068;BME280;40965;52.368;9.712;2023-06-22T10:12:46;101062.09;;;27.36;51.18
55068;BME280;40965;52.368;9.712;2023-06-22T10:15:15;101065.34;;;27.28;51.31
55068;BME280;40965;52.368;9.712;2023-06-22T10:17:41;101059.47;;;27.10;51.92
55068;BME280;40965;52.368;9.712;2023-06-22T10:20:08;101069.09;;;27.01;52.28
55068;BME280;40965;52.368;9.712;2023-06-22T10:22:44;101061.59;;;26.81;53.41
55068;BME280;40965;52.368;9.712;2023-06-22T10:25:12;101058.00;;;26.67;53.67
55068;BME280;40965;52.368;9.712;2023-06-22T10:27:39;101049.34;;;26.64;53.89
55068;BME280;40965;52.368;9.712;2023-06-22T10:30:07;101036.34;;;26.45;54.55
55068;BME280;40965;52.368;9.712;2023-06-22T10:32:35;101035.50;;;26.57;54.24
55068;BME280;40965;52.368;9.712;2023-06-22T10:35:06;101041.06;;;26.93;53.17
55068;BME280;40965;52.368;9.712;2023-06-22T10:37:33;101036.47;;;27.19;52.54
55068;BME280;40965;52.368;9.712;2023-06-22T10:40:00;101030.66;;;27.25;52.34
55068;BME280;40965;52.368;9.712;2023-06-22T10:42:26;101032.38;;;27.26;52.77
55068;BME280;40965;52.368;9.712;2023-06-22T10:44:53;101029.81;;;27.49;52.28
55068;BME280;40965;52.368;9.712;2023-06-22T10:47:19;101038.69;;;27.62;52.06
55068;BME280;40965;52.368;9.712;2023-06-22T10:49:46;101030.91;;;27.46;52.39
55068;BME280;40965;52.368;9.712;2023-06-22T10:52:13;101025.53;;;27.46;52.44
55068;BME280;40965;52.368;9.712;2023-06-22T10:54:41;101040.31;;;27.40;52.13
55068;BME280;40965;52.368;9.712;2023-06-22T10:57:08;101025.41;;;27.48;52.21
55068;BME280;40965;52.368;9.712;2023-06-22T10:59:34;101027.97;;;27.49;52.13
55068;BME280;40965;52.368;9.712;2023-06-22T11:02:01;101020.66;;;27.51;52.18
55068;BME280;40965;52.368;9.712;2023-06-22T11:04:28;101018.09;;;27.50;51.85
55068;BME280;40965;52.368;9.712;2023-06-22T11:06:54;101009.09;;;27.62;52.27
55068;BME280;40965;52.368;9.712;2023-06-22T11:09:22;101011.47;;;27.78;51.77
55068;BME280;40965;52.368;9.712;2023-06-22T11:11:50;101006.59;;;27.83;51.21
55068;BME280;40965;52.368;9.712;2023-06-22T11:14:18;101005.56;;;27.97;51.33
55068;BME280;40965;52.368;9.712;2023-06-22T11:16:46;101010.72;;;28.00;51.32
55068;BME280;40965;52.368;9.712;2023-06-22T11:19:12;101013.50;;;27.87;51.38
55068;BME280;40965;52.368;9.712;2023-06-22T11:21:39;101005.00;;;27.81;51.70
55068;BME280;40965;52.368;9.712;2023-06-22T11:24:06;101002.63;;;27.65;52.01
55068;BME280;40965;52.368;9.712;2023-06-22T11:26:35;101003.28;;;27.44;52.84
55068;BME280;40965;52.368;9.712;2023-06-22T11:29:02;101003.75;;;27.38;53.13
55068;BME280;40965;52.368;9.712;2023-06-22T11:31:31;100997.72;;;27.34;52.67
55068;BME280;40965;52.368;9.712;2023-06-22T11:33:58;100997.06;;;27.31;53.02
55068;BME280;40965;52.368;9.712;2023-06-22T11:36:25;101000.81;;;27.41;53.08
55068;BME280;40965;52.368;9.712;2023-06-22T11:38:54;100993.41;;;27.80;51.77
55068;BME280;40965;52.368;9.712;2023-06-22T11:41:21;100981.66;;;28.62;50.29
55068;BME280;40965;52.368;9.712;2023-06-22T11:43:47;100974.22;;;29.65;47.48
55068;BME280;40965;52.368;9.712;2023-06-22T11:46:14;100968.81;;;30.28;45.73
55068;BME280;40965;52.368;9.712;2023-06-22T11:48:41;100968.13;;;31.27;43.97
55068;BME280;40965;52.368;9.712;2023-06-22T11:51:07;100962.88;;;33.15;40.22
55068;BME280;40965;52.368;9.712;2023-06-22T11:53:34;100950.38;;;34.64;37.16
55068;BME280;40965;52.368;9.712;2023-06-22T11:56:01;100946.97;;;35.46;35.24
55068;BME280;40965;52.368;9.712;2023-06-22T11:58:27;100945.94;;;35.14;34.64
55068;BME280;40965;52.368;9.712;2023-06-22T12:00:54;100940.81;;;35.03;35.24
55068;BME280;40965;52.368;9.712;2023-06-22T12:03:21;100943.38;;;35.95;34.71
55068;BME280;40965;52.368;9.712;2023-06-22T12:05:47;100925.44;;;37.20;33.08
55068;BME280;40965;52.368;9.712;2023-06-22T12:08:14;100912.94;;;37.49;31.19
55068;BME280;40965;52.368;9.712;2023-06-22T12:10:41;100923.94;;;36.54;33.15
55068;BME280;40965;52.368;9.712;2023-06-22T12:13:07;100924.84;;;35.33;34.32
55068;BME280;40965;52.368;9.712;2023-06-22T12:15:34;100928.19;;;34.08;36.77
55068;BME280;40965;52.368;9.712;2023-06-22T12:18:01;100913.06;;;33.35;38.36
55068;BME280;40965;52.368;9.712;2023-06-22T12:20:27;100926.22;;;32.65;38.77
55068;BME280;40965;52.368;9.712;2023-06-22T12:22:54;100911.75;;;31.72;40.63
55068;BME280;40965;52.368;9.712;2023-06-22T12:25:23;100909.03;;;31.52;40.95
55068;BME280;40965;52.368;9.712;2023-06-22T12:27:49;100899.41;;;31.20;41.50
55068;BME280;40965;52.368;9.712;2023-06-22T12:30:16;100899.13;;;31.13;41.31
55068;BME280;40965;52.368;9.712;2023-06-22T12:32:43;100888.13;;;31.05;41.69
55068;BME280;40965;52.368;9.712;2023-06-22T12:35:09;100889.78;;;30.67;42.68
55068;BME280;40965;52.368;9.712;2023-06-22T12:37:40;100889.22;;;30.32;43.52
55068;BME280;40965;52.368;9.712;2023-06-22T12:40:09;100893.34;;;30.27;43.83
55068;BME280;40965;52.368;9.712;2023-06-22T12:42:36;100891.53;;;30.37;43.47
55068;BME280;40965;52.368;9.712;2023-06-22T12:45:05;100888.13;;;30.45;43.55
55068;BME280;40965;52.368;9.712;2023-06-22T12:47:33;100882.13;;;30.31;44.04
55068;BME280;40965;52.368;9.712;2023-06-22T12:50:00;100880.75;;;29.85;45.29
55068;BME280;40965;52.368;9.712;2023-06-22T12:52:29;100875.22;;;29.56;46.14
55068;BME280;40965;52.368;9.712;2023-06-22T12:54:56;100873.03;;;29.28;46.52
55068;BME280;40965;52.368;9.712;2023-06-22T12:57:23;100863.41;;;29.03;47.30
55068;BME280;40965;52.368;9.712;2023-06-22T12:59:50;100861.84;;;29.00;48.10
55068;BME280;40965;52.368;9.712;2023-06-22T13:02:17;100857.09;;;28.93;47.87
55068;BME280;40965;52.368;9.712;2023-06-22T13:04:44;100857.63;;;28.86;48.42
55068;BME280;40965;52.368;9.712;2023-06-22T13:07:11;100861.44;;;28.73;48.51
55068;BME280;40965;52.368;9.712;2023-06-22T13:09:38;100850.88;;;28.81;48.69
55068;BME280;40965;52.368;9.712;2023-06-22T13:12:05;100848.59;;;28.76;49.20